Hlavní strana
METAR-TAF:

METAR-TAF

Letiště :

Dar es Salaam, Tanzanie

zeměpisná šířka: 06-52S, zeměpisná délka: 039-12E, výška: 55 m

Aktuální stav počasí

Zpráva byla vytvořena před 46 minutami, v 07:00 UTC
Bezvětří
Teplota 33°C
Vlhkost vzduchu 63%
Tlak 1011 hPa
Viditelnost 10 km a více
Oblačno až skoro zataženo ve výšce 2300 ft

METAR: HTDA 250700Z 00000KT 9999 BKN023 33/25 Q1011 NOSIG

Čas: 10:46 (07:46 UTC)

Předpověď počasí

Zpráva byla vytvořena před 8 hodinami a 46 minutami, v 23:00 UTC
Předpověď platná od 25 v 00 UTC do 26 v 06 UTC
Severní vítr kt
Viditelnost 10 km a více
Polojasno ve výšce 1400 ft
Změna
od 25 v 04 UTC do 25 v 07 UTC
Severní vítr 10 kt
Oblačno až skoro zataženo ve výšce 2100 ft

TAF: HTDA 242300Z 2500/2606 00000KT 9999 SCT014 BECMG 2504/2507 35010KT BKN021

Stav a předpovědi počasí z více než 4 000 letišť (zprávy METAR a TAF).

Červené a žluté tečky na mapě představují dostupné meteorologické stanice.

Když kurzor umístíte na tečku, zobrazí se název stanice.

Pak kliknutím zobrazíte stav a předpověď počasí.

Chcete-li změnit mapu, kliknutím na zelené tlačítko se znaménkem +mapu přiblížíte, kliknutím na zelené tlačítko se znaménkem – mapu oddálíte a kliknutím na zelené šipky přejdete na sousední mapy.


METAR-TAF: